»·PEaware :: N377AM KSNA-KFLG

N377AM :: KSNA-KFLG

FLIGHT INFORMATION

Flight Status: Arrived
Operator: Privately registered:
United States
More flights under this callsign
Pilot: Andrew M. (139)
Aircraft: SOCATA TBM-900
(TBM9)
More flights by this aircraft type
Origin: KSNA John Wayne-Orange Co
United States
Destination: KFLG Flagstaff Pulliam
United States
More flights between these airports :: More routes between these airports
Route: + JAWSY
File this flight plan on PilotEdge
Remarks:
Altitude:
(Current/Filed)
29,000ft
Speed:
(Current/Filed)
300kts
Departed: 30-Jan-19 06:34 PM
Arrived: 30-Jan-19 08:29 PM
Distance/Time
Traveled:
319nm/1:55
Distance/Time
To Go:
Arrived

Flight Plot

Page will automatically refresh every two minutes.

Flight plan parsing failed; only flown route is shown


Map Options




Map Legend


Flown Route
Filed Route
Departure Airport
Arrival Airport
Navaid (VOR, NDB)
Fix

Horizontal Profiles

Position Reports

Time Latitude Longitude Heading Altitude Ground
Speed
30-Jan-19 18:15 33.674112 -117.865569 117 59ft 0kts
30-Jan-19 18:16 33.674112 -117.865569 117 59ft 0kts
30-Jan-19 18:17 33.674112 -117.865569 117 59ft 0kts
30-Jan-19 18:18 33.674112 -117.865569 117 59ft 0kts
30-Jan-19 18:19 33.674112 -117.865569 117 59ft 0kts
30-Jan-19 18:20 33.674112 -117.865569 117 59ft 0kts
30-Jan-19 18:21 33.674112 -117.865569 117 59ft 0kts
30-Jan-19 18:22 33.674112 -117.865569 117 59ft 0kts
30-Jan-19 18:23 33.674112 -117.865569 117 59ft 0kts
30-Jan-19 18:24 33.674112 -117.865569 117 59ft 0kts
30-Jan-19 18:25 33.674112 -117.865569 117 59ft 0kts
30-Jan-19 18:26 33.674112 -117.865569 117 59ft 0kts
30-Jan-19 18:27 33.674112 -117.865569 117 59ft 0kts
30-Jan-19 18:28 33.674152 -117.865278 19 59ft 4kts
30-Jan-19 18:29 33.676014 -117.865292 26 59ft 15kts
30-Jan-19 18:30 33.679471 -117.863134 13 59ft 10kts
30-Jan-19 18:31 33.679916 -117.863517 300 59ft 0kts
30-Jan-19 18:32 33.680357 -117.864516 296 59ft 11kts
30-Jan-19 18:33 33.677149 -117.867930 207 59ft 89kts
30-Jan-19 18:34 33.651763 -117.881820 199 1484ft 128kts
30-Jan-19 18:35 33.622388 -117.889752 189 3407ft 127kts
30-Jan-19 18:36 33.590772 -117.895735 189 5389ft 131kts
30-Jan-19 18:37 33.564876 -117.894745 155 6893ft 138kts
30-Jan-19 18:38 33.540110 -117.879638 155 8549ft 142kts
30-Jan-19 18:39 33.515037 -117.863890 154 10185ft 153kts
30-Jan-19 18:40 33.497423 -117.832908 112 11778ft 165kts
30-Jan-19 18:41 33.483069 -117.795852 111 13373ft 173kts
30-Jan-19 18:42 33.476649 -117.756452 79 14956ft 172kts
30-Jan-19 18:43 33.479587 -117.716263 78 16472ft 178kts
30-Jan-19 18:44 33.490806 -117.677865 51 18020ft 175kts
30-Jan-19 18:45 33.507647 -117.642455 50 19567ft 178kts
30-Jan-19 18:46 33.524404 -117.607308 50 21009ft 181kts
30-Jan-19 18:47 33.541967 -117.570406 50 22346ft 185kts
30-Jan-19 18:48 33.559754 -117.532979 50 23572ft 189kts
30-Jan-19 18:49 33.578639 -117.493069 53 24744ft 195kts
30-Jan-19 18:50 33.582478 -117.449201 84 25676ft 216kts
30-Jan-19 18:52 33.581383 -117.403064 84 26548ft 222kts
30-Jan-19 18:53 33.580204 -117.355606 83 27387ft 227kts
30-Jan-19 18:54 33.579033 -117.308912 84 28116ft 233kts
30-Jan-19 18:55 33.577811 -117.261268 84 28824ft 236kts
30-Jan-19 18:56 33.583213 -117.212532 66 28993ft 250kts
30-Jan-19 18:57 33.593961 -117.162016 67 28983ft 265kts
30-Jan-19 18:58 33.605693 -117.107317 68 28978ft 275kts
30-Jan-19 18:59 33.617789 -117.050483 68 28970ft 280kts
30-Jan-19 19:00 33.628334 -116.994438 81 28967ft 286kts
30-Jan-19 19:01 33.627443 -116.936015 86 28979ft 289kts
30-Jan-19 19:02 33.625937 -116.876134 87 28976ft 291kts
30-Jan-19 19:03 33.624312 -116.813343 87 28974ft 292kts
30-Jan-19 19:04 33.622653 -116.749616 87 28970ft 294kts
30-Jan-19 19:05 33.620918 -116.685177 88 28977ft 296kts
30-Jan-19 19:06 33.619144 -116.620982 88 28971ft 296kts
30-Jan-19 19:07 33.617385 -116.558536 88 28971ft 288kts
30-Jan-19 19:08 33.620632 -116.499608 64 28971ft 275kts
30-Jan-19 19:09 33.645345 -116.455210 50 28970ft 265kts
30-Jan-19 19:10 33.669802 -116.410930 48 28983ft 261kts
30-Jan-19 19:10 33.692052 -116.372924 48 29021ft 261kts
30-Jan-19 19:11 33.718084 -116.328128 49 29022ft 270kts
30-Jan-19 19:13 33.750659 -116.271897 50 29019ft 275kts
30-Jan-19 19:14 33.779655 -116.221782 50 29018ft 278kts
30-Jan-19 19:14 33.804179 -116.179327 50 29017ft 280kts
30-Jan-19 19:15 33.833418 -116.128666 50 29014ft 281kts
30-Jan-19 19:16 33.863968 -116.075643 50 29006ft 282kts
30-Jan-19 19:17 33.896264 -116.019512 50 28998ft 282kts
30-Jan-19 19:18 33.929127 -115.962270 50 28988ft 282kts
30-Jan-19 19:19 33.961548 -115.905753 50 28981ft 282kts
30-Jan-19 19:20 33.994142 -115.848886 50 28982ft 286kts
30-Jan-19 19:21 34.027220 -115.791063 50 28985ft 292kts
30-Jan-19 19:22 34.060534 -115.732709 50 28983ft 295kts
30-Jan-19 19:23 34.094698 -115.672754 51 28984ft 296kts
30-Jan-19 19:24 34.126828 -115.616288 51 28992ft 297kts
30-Jan-19 19:25 34.161463 -115.555249 50 28996ft 294kts
30-Jan-19 19:26 34.194110 -115.497691 50 29002ft 292kts
30-Jan-19 19:27 34.227353 -115.439136 51 29009ft 292kts
30-Jan-19 19:28 34.260437 -115.380573 51 29013ft 292kts
30-Jan-19 19:29 34.293534 -115.321901 51 29008ft 292kts
30-Jan-19 19:30 34.327511 -115.261586 51 29008ft 292kts
30-Jan-19 19:31 34.361661 -115.200838 52 29011ft 296kts
30-Jan-19 19:32 34.395705 -115.140241 52 29001ft 296kts
30-Jan-19 19:33 34.428980 -115.080795 51 28994ft 298kts
30-Jan-19 19:34 34.463273 -115.019550 51 28984ft 300kts
30-Jan-19 19:35 34.498657 -114.956240 51 28974ft 301kts
30-Jan-19 19:36 34.533165 -114.894377 51 28973ft 301kts
30-Jan-19 19:37 34.566624 -114.834324 51 28960ft 302kts
30-Jan-19 19:38 34.597509 -114.771226 57 28974ft 304kts
30-Jan-19 19:39 34.620826 -114.703834 74 28987ft 309kts
30-Jan-19 19:40 34.633896 -114.631399 74 28972ft 308kts
30-Jan-19 19:41 34.646930 -114.559957 74 28969ft 305kts
30-Jan-19 19:42 34.660135 -114.487245 74 28965ft 306kts
30-Jan-19 19:43 34.673630 -114.412711 74 28957ft 302kts
30-Jan-19 19:44 34.686849 -114.339555 74 28969ft 296kts
30-Jan-19 19:45 34.700343 -114.264451 74 28969ft 293kts
30-Jan-19 19:46 34.714254 -114.186749 74 28979ft 291kts
30-Jan-19 19:47 34.727989 -114.109737 74 28998ft 290kts
30-Jan-19 19:48 34.741789 -114.032062 74 29017ft 290kts
30-Jan-19 19:49 34.755606 -113.954078 74 29028ft 288kts
30-Jan-19 19:50 34.769409 -113.876616 74 29029ft 287kts
30-Jan-19 19:51 34.783383 -113.797646 74 29042ft 290kts
30-Jan-19 19:52 34.797422 -113.718722 74 29034ft 295kts
30-Jan-19 19:53 34.811514 -113.638488 75 29033ft 297kts
30-Jan-19 19:54 34.825435 -113.558780 74 29036ft 301kts
30-Jan-19 19:55 34.839844 -113.476618 74 29035ft 302kts
30-Jan-19 19:56 34.854240 -113.393845 74 29036ft 302kts
30-Jan-19 19:57 34.867981 -113.314501 75 29033ft 302kts
30-Jan-19 19:58 34.882118 -113.232544 75 28594ft 304kts
30-Jan-19 19:59 34.896476 -113.148956 75 27338ft 296kts
30-Jan-19 20:00 34.910435 -113.067330 75 26024ft 282kts
30-Jan-19 20:01 34.924015 -112.989214 74 24736ft 274kts
30-Jan-19 20:02 34.937412 -112.911874 75 23599ft 264kts
30-Jan-19 20:03 34.950011 -112.837143 75 22950ft 244kts
30-Jan-19 20:04 34.961716 -112.767403 75 22952ft 229kts
30-Jan-19 20:05 34.973899 -112.694707 76 21374ft 252kts
30-Jan-19 20:06 34.986180 -112.620975 76 19604ft 248kts
30-Jan-19 20:07 34.998404 -112.547192 77 17791ft 243kts
30-Jan-19 20:08 35.010158 -112.475734 77 16001ft 238kts
30-Jan-19 20:09 35.021209 -112.408643 77 14965ft 219kts
30-Jan-19 20:10 35.031176 -112.347823 77 14966ft 203kts
30-Jan-19 20:11 35.040960 -112.288543 78 14973ft 201kts
30-Jan-19 20:12 35.050441 -112.230197 78 14972ft 203kts
30-Jan-19 20:13 35.060030 -112.170830 78 14964ft 200kts
30-Jan-19 20:14 35.069443 -112.113020 78 14965ft 197kts
30-Jan-19 20:15 35.079490 -112.050635 78 14037ft 217kts
30-Jan-19 20:16 35.089675 -111.987358 78 13155ft 218kts
30-Jan-19 20:17 35.099884 -111.923609 79 12287ft 218kts
30-Jan-19 20:18 35.109184 -111.865536 79 11989ft 211kts
30-Jan-19 20:19 35.118262 -111.814105 70 11296ft 166kts
30-Jan-19 20:20 35.139313 -111.778857 45 10343ft 142kts
30-Jan-19 20:21 35.163793 -111.750296 43 9394ft 141kts
30-Jan-19 20:22 35.186333 -111.723613 48 9552ft 127kts
30-Jan-19 20:23 35.193689 -111.691513 95 9595ft 113kts
30-Jan-19 20:24 35.190505 -111.663002 141 8819ft 104kts
30-Jan-19 20:25 35.171370 -111.647236 151 8038ft 106kts
30-Jan-19 20:26 35.152829 -111.655735 221 7301ft 91kts
30-Jan-19 20:27 35.138580 -111.671021 221 7014ft 46kts
30-Jan-19 20:28 35.137354 -111.673956 297 7014ft 1kts
30-Jan-19 20:29 35.137605 -111.675172 245 7014ft 5kts
30-Jan-19 20:30 35.137418 -111.675508 212 7014ft 0kts
30-Jan-19 20:31 35.137418 -111.675508 212 7014ft 0kts
30-Jan-19 20:32 35.137418 -111.675508 212 7014ft 0kts

Navigation Log

Ident Type
Flight plan parsing failed, navigation log unavailable